Portada
METAR-TAF:

METAR-TAF

Aeropuertos :

Mankato, Minnesota, Estados Unidos

latitud: 44-13N, longitud: 093-55W, altitud: 311 m

Observación

El informe se hizo hace 17 minutos, a las 10:56 UTC
Viento 12 kt del este-noreste
Temperatura 2°C
Humedad 75%
Presión 1021 hPa
Visibilidad: 16.1 km
Cielo despejado

METAR: KMKT 311056Z AUTO 07012KT 10SM CLR 02/M02 A3014 RMK AO2 SLP214 T00221017 FZRANO

Hora: 06:13 (11:13 UTC)

Pronóstico

El informe se hizo hace 5 horas y 53 minutos, a las 05:20 UTC
Pronóstico válido del 31 a las 06 UTC al 01 a las 06 UTC
Viento 4 kt del este
Visibilidad: 10 km
Escasas nubes a una altura de 25000 ft
A partir de las 31 a las 1600 UTC
Viento 8 kt del este-sureste
Visibilidad: 10 km
Nubes dispersas a una altura de 20000 ft
A partir de las 01 a las 0200 UTC
Viento 11 kt del sureste
Visibilidad: 10 km
Cielo nuboso a una altura de 10000 ft

TAF: KMKT 310520Z 3106/0106 10004KT P6SM FEW250 FM311600 11008KT P6SM SCT200 FM010200 13011KT P6SM BKN100

Observaciones y pronósticos meteorológicos de más de 4000 aeropuertos (mensajes METAR y TAF).

Los puntos amarillos y rojos representan las estaciones disponibles.

Ponga el ratón en el punto deseado para ver el nombre de la estación.

Haga clic para ver las observaciones y los pronósticos meteorológicos.

Para cambiar el mapa : haga clic en los botones verdes con una cruz de color negro para hacer un zoom, en el botón verde con un guión para alejar o en las flechas verdes para mapas adyacentes.


METAR-TAF: